sensor_id;sensor_type;location;lat;lon;timestamp;pressure;altitude;pressure_sealevel;temperature
18474;BMP180;30265;52.408;13.500;2022-12-29T00:05:33;101030.00;;;13.70
18474;BMP180;30265;52.408;13.500;2022-12-29T00:15:56;101020.00;;;13.70
18474;BMP180;30265;52.408;13.500;2022-12-29T00:26:18;100996.00;;;13.90
18474;BMP180;30265;52.408;13.500;2022-12-29T00:37:00;101002.00;;;14.10
18474;BMP180;30265;52.408;13.500;2022-12-29T00:47:22;100991.00;;;14.10
18474;BMP180;30265;52.408;13.500;2022-12-29T00:57:45;100987.00;;;14.20
18474;BMP180;30265;52.408;13.500;2022-12-29T01:08:07;100966.00;;;14.20
18474;BMP180;30265;52.408;13.500;2022-12-29T01:18:30;100964.00;;;14.20
18474;BMP180;30265;52.408;13.500;2022-12-29T01:29:02;100967.00;;;14.20
18474;BMP180;30265;52.408;13.500;2022-12-29T01:39:35;100957.00;;;14.40
18474;BMP180;30265;52.408;13.500;2022-12-29T01:50:00;100962.00;;;14.30
18474;BMP180;30265;52.408;13.500;2022-12-29T02:00:24;100946.00;;;14.20
18474;BMP180;30265;52.408;13.500;2022-12-29T02:10:46;100939.00;;;14.30
18474;BMP180;30265;52.408;13.500;2022-12-29T02:21:34;100911.00;;;14.50
18474;BMP180;30265;52.408;13.500;2022-12-29T02:32:03;100914.00;;;14.60
18474;BMP180;30265;52.408;13.500;2022-12-29T02:42:34;100909.00;;;14.60
18474;BMP180;30265;52.408;13.500;2022-12-29T02:53:01;100890.00;;;14.70
18474;BMP180;30265;52.408;13.500;2022-12-29T03:03:31;100908.00;;;14.70
18474;BMP180;30265;52.408;13.500;2022-12-29T03:14:02;100871.00;;;14.80
18474;BMP180;30265;52.408;13.500;2022-12-29T03:24:46;100851.00;;;14.90
18474;BMP180;30265;52.408;13.500;2022-12-29T03:35:14;100843.00;;;15.00
18474;BMP180;30265;52.408;13.500;2022-12-29T03:45:37;100845.00;;;15.00
18474;BMP180;30265;52.408;13.500;2022-12-29T03:56:01;100860.00;;;15.00
18474;BMP180;30265;52.408;13.500;2022-12-29T04:06:23;100862.00;;;15.10
18474;BMP180;30265;52.408;13.500;2022-12-29T04:16:53;100847.00;;;15.10
18474;BMP180;30265;52.408;13.500;2022-12-29T04:27:16;100848.00;;;15.20
18474;BMP180;30265;52.408;13.500;2022-12-29T04:50:27;100843.00;;;15.20
18474;BMP180;30265;52.408;13.500;2022-12-29T05:01:08;100812.00;;;15.10
18474;BMP180;30265;52.408;13.500;2022-12-29T05:11:31;100823.00;;;15.30
18474;BMP180;30265;52.408;13.500;2022-12-29T05:21:54;100802.00;;;15.40
18474;BMP180;30265;52.408;13.500;2022-12-29T05:32:18;100778.00;;;15.30
18474;BMP180;30265;52.408;13.500;2022-12-29T05:42:40;100784.00;;;15.40
18474;BMP180;30265;52.408;13.500;2022-12-29T05:53:33;100779.00;;;15.50
18474;BMP180;30265;52.408;13.500;2022-12-29T06:04:06;100785.00;;;15.70
18474;BMP180;30265;52.408;13.500;2022-12-29T06:14:29;100763.00;;;15.60
18474;BMP180;30265;52.408;13.500;2022-12-29T06:24:56;100765.00;;;15.70
18474;BMP180;30265;52.408;13.500;2022-12-29T06:35:27;100760.00;;;15.70
18474;BMP180;30265;52.408;13.500;2022-12-29T06:45:48;100752.00;;;15.70
18474;BMP180;30265;52.408;13.500;2022-12-29T06:56:12;100788.00;;;15.70
18474;BMP180;30265;52.408;13.500;2022-12-29T07:06:34;100793.00;;;15.60
18474;BMP180;30265;52.408;13.500;2022-12-29T07:16:57;100785.00;;;15.50
18474;BMP180;30265;52.408;13.500;2022-12-29T07:27:27;100800.00;;;15.50
18474;BMP180;30265;52.408;13.500;2022-12-29T07:37:51;100807.00;;;15.60
18474;BMP180;30265;52.408;13.500;2022-12-29T07:48:13;100797.00;;;15.80
18474;BMP180;30265;52.408;13.500;2022-12-29T07:58:36;100786.00;;;15.90
18474;BMP180;30265;52.408;13.500;2022-12-29T08:08:58;100773.00;;;16.10
18474;BMP180;30265;52.408;13.500;2022-12-29T08:19:34;100787.00;;;16.20
18474;BMP180;30265;52.408;13.500;2022-12-29T08:29:55;100770.00;;;16.30
18474;BMP180;30265;52.408;13.500;2022-12-29T08:40:18;100759.00;;;16.30
18474;BMP180;30265;52.408;13.500;2022-12-29T08:50:42;100773.00;;;16.20
18474;BMP180;30265;52.408;13.500;2022-12-29T09:01:06;100763.00;;;16.30
18474;BMP180;30265;52.408;13.500;2022-12-29T09:11:28;100754.00;;;16.30
18474;BMP180;30265;52.408;13.500;2022-12-29T09:21:51;100759.00;;;16.80
18474;BMP180;30265;52.408;13.500;2022-12-29T09:32:12;100733.00;;;17.20
18474;BMP180;30265;52.408;13.500;2022-12-29T09:42:43;100716.00;;;17.60
18474;BMP180;30265;52.408;13.500;2022-12-29T09:53:11;100696.00;;;18.00
18474;BMP180;30265;52.408;13.500;2022-12-29T10:03:45;100687.00;;;18.30
18474;BMP180;30265;52.408;13.500;2022-12-29T10:14:19;100673.00;;;18.50
18474;BMP180;30265;52.408;13.500;2022-12-29T10:24:44;100686.00;;;18.30
18474;BMP180;30265;52.408;13.500;2022-12-29T10:35:12;100701.00;;;18.20
18474;BMP180;30265;52.408;13.500;2022-12-29T10:45:36;100693.00;;;18.20
18474;BMP180;30265;52.408;13.500;2022-12-29T10:56:00;100660.00;;;18.80
18474;BMP180;30265;52.408;13.500;2022-12-29T11:06:26;100696.00;;;18.20
18474;BMP180;30265;52.408;13.500;2022-12-29T11:16:57;100678.00;;;18.20
18474;BMP180;30265;52.408;13.500;2022-12-29T11:27:22;100723.00;;;17.80
18474;BMP180;30265;52.408;13.500;2022-12-29T11:37:56;100736.00;;;17.00
18474;BMP180;30265;52.408;13.500;2022-12-29T11:48:21;100754.00;;;16.70
18474;BMP180;30265;52.408;13.500;2022-12-29T11:58:43;100776.00;;;16.00
18474;BMP180;30265;52.408;13.500;2022-12-29T12:09:10;100760.00;;;15.90
18474;BMP180;30265;52.408;13.500;2022-12-29T12:19:40;100803.00;;;15.60
18474;BMP180;30265;52.408;13.500;2022-12-29T12:30:09;100785.00;;;15.40
18474;BMP180;30265;52.408;13.500;2022-12-29T12:40:57;100776.00;;;15.20
18474;BMP180;30265;52.408;13.500;2022-12-29T12:51:25;100766.00;;;15.20
18474;BMP180;30265;52.408;13.500;2022-12-29T13:01:57;100758.00;;;15.30
18474;BMP180;30265;52.408;13.500;2022-12-29T13:12:32;100753.00;;;15.40
18474;BMP180;30265;52.408;13.500;2022-12-29T13:23:00;100761.00;;;15.60
18474;BMP180;30265;52.408;13.500;2022-12-29T13:33:31;100768.00;;;15.50
18474;BMP180;30265;52.408;13.500;2022-12-29T13:43:58;100768.00;;;15.40
18474;BMP180;30265;52.408;13.500;2022-12-29T13:54:30;100792.00;;;15.30
18474;BMP180;30265;52.408;13.500;2022-12-29T14:04:59;100792.00;;;15.20
18474;BMP180;30265;52.408;13.500;2022-12-29T14:15:24;100798.00;;;15.20
18474;BMP180;30265;52.408;13.500;2022-12-29T14:36:38;100781.00;;;15.70
18474;BMP180;30265;52.408;13.500;2022-12-29T14:47:04;100798.00;;;16.00
18474;BMP180;30265;52.408;13.500;2022-12-29T14:57:40;100807.00;;;16.10
18474;BMP180;30265;52.408;13.500;2022-12-29T15:08:03;100816.00;;;16.20
18474;BMP180;30265;52.408;13.500;2022-12-29T15:18:30;100825.00;;;16.40
18474;BMP180;30265;52.408;13.500;2022-12-29T15:28:53;100847.00;;;16.30
18474;BMP180;30265;52.408;13.500;2022-12-29T15:39:20;100866.00;;;16.10
18474;BMP180;30265;52.408;13.500;2022-12-29T15:49:43;100874.00;;;15.60
18474;BMP180;30265;52.408;13.500;2022-12-29T16:00:28;100895.00;;;15.60
18474;BMP180;30265;52.408;13.500;2022-12-29T16:10:51;100901.00;;;15.30
18474;BMP180;30265;52.408;13.500;2022-12-29T16:21:26;100919.00;;;15.30
18474;BMP180;30265;52.408;13.500;2022-12-29T16:31:52;100930.00;;;15.40
18474;BMP180;30265;52.408;13.500;2022-12-29T16:42:36;100932.00;;;15.40
18474;BMP180;30265;52.408;13.500;2022-12-29T16:52:58;100943.00;;;15.50
18474;BMP180;30265;52.408;13.500;2022-12-29T17:03:29;100947.00;;;15.50
18474;BMP180;30265;52.408;13.500;2022-12-29T17:13:59;100962.00;;;15.30
18474;BMP180;30265;52.408;13.500;2022-12-29T17:24:23;100968.00;;;15.40
18474;BMP180;30265;52.408;13.500;2022-12-29T17:34:45;100964.00;;;16.00
18474;BMP180;30265;52.408;13.500;2022-12-29T17:45:12;100971.00;;;16.00
18474;BMP180;30265;52.408;13.500;2022-12-29T17:55:34;100980.00;;;15.50
18474;BMP180;30265;52.408;13.500;2022-12-29T18:05:59;100991.00;;;15.30
18474;BMP180;30265;52.408;13.500;2022-12-29T18:16:21;100995.00;;;14.90
18474;BMP180;30265;52.408;13.500;2022-12-29T18:26:45;101011.00;;;14.50
18474;BMP180;30265;52.408;13.500;2022-12-29T18:37:07;101033.00;;;14.20
18474;BMP180;30265;52.408;13.500;2022-12-29T18:59:12;101045.00;;;14.30
18474;BMP180;30265;52.408;13.500;2022-12-29T19:09:41;101033.00;;;14.40
18474;BMP180;30265;52.408;13.500;2022-12-29T19:20:25;101052.00;;;14.70
18474;BMP180;30265;52.408;13.500;2022-12-29T19:30:52;101064.00;;;14.80
18474;BMP180;30265;52.408;13.500;2022-12-29T19:41:23;101067.00;;;14.60
18474;BMP180;30265;52.408;13.500;2022-12-29T19:51:45;101067.00;;;14.40
18474;BMP180;30265;52.408;13.500;2022-12-29T20:02:16;101073.00;;;14.60
18474;BMP180;30265;52.408;13.500;2022-12-29T20:12:39;101078.00;;;14.40
18474;BMP180;30265;52.408;13.500;2022-12-29T20:23:02;101061.00;;;14.60
18474;BMP180;30265;52.408;13.500;2022-12-29T20:33:24;101062.00;;;14.80
18474;BMP180;30265;52.408;13.500;2022-12-29T20:43:47;101054.00;;;14.90
18474;BMP180;30265;52.408;13.500;2022-12-29T20:54:10;101057.00;;;15.00
18474;BMP180;30265;52.408;13.500;2022-12-29T21:04:33;101056.00;;;14.80
18474;BMP180;30265;52.408;13.500;2022-12-29T21:15:15;101054.00;;;14.80
18474;BMP180;30265;52.408;13.500;2022-12-29T21:25:42;101067.00;;;14.50
18474;BMP180;30265;52.408;13.500;2022-12-29T21:36:04;101089.00;;;14.50
18474;BMP180;30265;52.408;13.500;2022-12-29T21:46:27;101095.00;;;14.30
18474;BMP180;30265;52.408;13.500;2022-12-29T21:56:50;101114.00;;;14.10
18474;BMP180;30265;52.408;13.500;2022-12-29T22:07:13;101113.00;;;13.90
18474;BMP180;30265;52.408;13.500;2022-12-29T22:17:53;101137.00;;;13.50
18474;BMP180;30265;52.408;13.500;2022-12-29T22:28:16;101135.00;;;13.20
18474;BMP180;30265;52.408;13.500;2022-12-29T22:38:38;101147.00;;;12.90
18474;BMP180;30265;52.408;13.500;2022-12-29T22:49:01;101162.00;;;12.90
18474;BMP180;30265;52.408;13.500;2022-12-29T22:59:23;101160.00;;;12.90
18474;BMP180;30265;52.408;13.500;2022-12-29T23:09:46;101178.00;;;13.00
18474;BMP180;30265;52.408;13.500;2022-12-29T23:20:09;101191.00;;;13.10
18474;BMP180;30265;52.408;13.500;2022-12-29T23:30:34;101200.00;;;13.20
18474;BMP180;30265;52.408;13.500;2022-12-29T23:40:56;101193.00;;;13.20
18474;BMP180;30265;52.408;13.500;2022-12-29T23:51:19;101205.00;;;13.20
